sensor_id;sensor_type;location;lat;lon;timestamp;temperature;humidity
19880;DHT22;10102;50.828;4.416;2023-03-09T00:01:42;6.90;99.90
19880;DHT22;10102;50.828;4.416;2023-03-09T00:04:13;6.90;99.90
19880;DHT22;10102;50.828;4.416;2023-03-09T00:11:33;7.00;99.90
19880;DHT22;10102;50.828;4.416;2023-03-09T00:16:28;7.10;99.90
19880;DHT22;10102;50.828;4.416;2023-03-09T00:18:55;6.90;99.90
19880;DHT22;10102;50.828;4.416;2023-03-09T00:21:25;6.80;99.90
19880;DHT22;10102;50.828;4.416;2023-03-09T00:24:21;6.70;99.90
19880;DHT22;10102;50.828;4.416;2023-03-09T00:27:00;6.70;99.90
19880;DHT22;10102;50.828;4.416;2023-03-09T00:29:28;6.70;99.90
19880;DHT22;10102;50.828;4.416;2023-03-09T00:31:55;6.80;99.90
19880;DHT22;10102;50.828;4.416;2023-03-09T00:34:21;6.70;99.90
19880;DHT22;10102;50.828;4.416;2023-03-09T00:36:47;6.80;99.90
19880;DHT22;10102;50.828;4.416;2023-03-09T00:39:15;7.00;99.90
19880;DHT22;10102;50.828;4.416;2023-03-09T00:41:41;6.90;99.90
19880;DHT22;10102;50.828;4.416;2023-03-09T00:44:08;6.90;99.90
19880;DHT22;10102;50.828;4.416;2023-03-09T00:46:34;6.90;99.90
19880;DHT22;10102;50.828;4.416;2023-03-09T00:49:00;7.00;99.90
19880;DHT22;10102;50.828;4.416;2023-03-09T00:51:27;7.00;99.90
19880;DHT22;10102;50.828;4.416;2023-03-09T00:53:57;6.80;99.90
19880;DHT22;10102;50.828;4.416;2023-03-09T00:56:26;6.90;99.90
19880;DHT22;10102;50.828;4.416;2023-03-09T00:58:52;7.00;99.90
19880;DHT22;10102;50.828;4.416;2023-03-09T01:03:45;6.80;99.90
19880;DHT22;10102;50.828;4.416;2023-03-09T01:06:11;6.80;99.90
19880;DHT22;10102;50.828;4.416;2023-03-09T01:11:08;6.80;99.90
19880;DHT22;10102;50.828;4.416;2023-03-09T01:13:35;6.80;99.90
19880;DHT22;10102;50.828;4.416;2023-03-09T01:16:01;6.60;99.90
19880;DHT22;10102;50.828;4.416;2023-03-09T01:18:27;6.60;99.90
19880;DHT22;10102;50.828;4.416;2023-03-09T01:23:19;6.60;99.90
19880;DHT22;10102;50.828;4.416;2023-03-09T01:25:45;6.60;99.90
19880;DHT22;10102;50.828;4.416;2023-03-09T01:30:38;6.60;99.90
19880;DHT22;10102;50.828;4.416;2023-03-09T01:35:30;6.60;99.90
19880;DHT22;10102;50.828;4.416;2023-03-09T01:40:24;6.70;99.90
19880;DHT22;10102;50.828;4.416;2023-03-09T01:42:55;6.70;99.90
19880;DHT22;10102;50.828;4.416;2023-03-09T01:47:46;6.70;99.90
19880;DHT22;10102;50.828;4.416;2023-03-09T01:50:14;6.70;99.90
19880;DHT22;10102;50.828;4.416;2023-03-09T01:52:42;6.80;99.90
19880;DHT22;10102;50.828;4.416;2023-03-09T01:55:14;6.70;99.90
19880;DHT22;10102;50.828;4.416;2023-03-09T01:57:48;6.80;99.90
19880;DHT22;10102;50.828;4.416;2023-03-09T02:00:22;6.90;99.90
19880;DHT22;10102;50.828;4.416;2023-03-09T02:02:58;6.80;99.90
19880;DHT22;10102;50.828;4.416;2023-03-09T02:05:35;6.80;99.90
19880;DHT22;10102;50.828;4.416;2023-03-09T02:08:02;6.70;99.90
19880;DHT22;10102;50.828;4.416;2023-03-09T02:10:37;6.90;99.90
19880;DHT22;10102;50.828;4.416;2023-03-09T02:13:08;6.90;99.90
19880;DHT22;10102;50.828;4.416;2023-03-09T02:15:34;6.90;99.90
19880;DHT22;10102;50.828;4.416;2023-03-09T02:18:00;6.60;99.90
19880;DHT22;10102;50.828;4.416;2023-03-09T02:21:01;6.70;99.90
19880;DHT22;10102;50.828;4.416;2023-03-09T02:26:31;6.70;99.90
19880;DHT22;10102;50.828;4.416;2023-03-09T02:28:58;6.70;99.90
19880;DHT22;10102;50.828;4.416;2023-03-09T02:31:24;6.90;99.90
19880;DHT22;10102;50.828;4.416;2023-03-09T02:33:50;6.80;99.90
19880;DHT22;10102;50.828;4.416;2023-03-09T02:36:16;6.80;99.90
19880;DHT22;10102;50.828;4.416;2023-03-09T02:38:41;6.80;99.90
19880;DHT22;10102;50.828;4.416;2023-03-09T02:41:10;6.70;99.90
19880;DHT22;10102;50.828;4.416;2023-03-09T02:44:02;6.70;99.90
19880;DHT22;10102;50.828;4.416;2023-03-09T02:48:55;6.70;99.90
19880;DHT22;10102;50.828;4.416;2023-03-09T02:51:20;6.70;99.90
19880;DHT22;10102;50.828;4.416;2023-03-09T02:53:46;6.70;99.90
19880;DHT22;10102;50.828;4.416;2023-03-09T02:58:38;7.00;99.90
19880;DHT22;10102;50.828;4.416;2023-03-09T03:01:03;6.70;99.90
19880;DHT22;10102;50.828;4.416;2023-03-09T03:03:29;6.50;99.90
19880;DHT22;10102;50.828;4.416;2023-03-09T03:05:56;6.70;99.90
19880;DHT22;10102;50.828;4.416;2023-03-09T03:08:21;6.70;99.90
19880;DHT22;10102;50.828;4.416;2023-03-09T03:10:47;6.70;99.90
19880;DHT22;10102;50.828;4.416;2023-03-09T03:13:12;6.40;99.90
19880;DHT22;10102;50.828;4.416;2023-03-09T03:15:38;6.60;99.90
19880;DHT22;10102;50.828;4.416;2023-03-09T03:18:04;6.60;99.90
19880;DHT22;10102;50.828;4.416;2023-03-09T03:20:30;6.60;99.90
19880;DHT22;10102;50.828;4.416;2023-03-09T03:22:55;6.60;99.90
19880;DHT22;10102;50.828;4.416;2023-03-09T03:30:14;6.50;99.90
19880;DHT22;10102;50.828;4.416;2023-03-09T03:32:39;6.60;99.90
19880;DHT22;10102;50.828;4.416;2023-03-09T03:35:05;6.60;99.90
19880;DHT22;10102;50.828;4.416;2023-03-09T03:37:31;6.80;99.90
19880;DHT22;10102;50.828;4.416;2023-03-09T03:39:57;6.00;99.90
19880;DHT22;10102;50.828;4.416;2023-03-09T03:42:24;6.60;99.90
19880;DHT22;10102;50.828;4.416;2023-03-09T03:44:50;6.50;99.90
19880;DHT22;10102;50.828;4.416;2023-03-09T03:47:15;6.60;99.90
19880;DHT22;10102;50.828;4.416;2023-03-09T03:49:41;6.70;99.90
19880;DHT22;10102;50.828;4.416;2023-03-09T03:52:07;6.50;99.90
19880;DHT22;10102;50.828;4.416;2023-03-09T03:56:59;6.70;99.90
19880;DHT22;10102;50.828;4.416;2023-03-09T03:59:26;6.70;99.90
19880;DHT22;10102;50.828;4.416;2023-03-09T04:01:51;6.80;99.90
19880;DHT22;10102;50.828;4.416;2023-03-09T04:04:17;6.70;99.90
19880;DHT22;10102;50.828;4.416;2023-03-09T04:06:43;6.70;99.90
19880;DHT22;10102;50.828;4.416;2023-03-09T04:14:00;6.60;99.90
19880;DHT22;10102;50.828;4.416;2023-03-09T04:16:26;6.70;99.90
19880;DHT22;10102;50.828;4.416;2023-03-09T04:18:52;6.70;99.90
19880;DHT22;10102;50.828;4.416;2023-03-09T04:21:18;6.70;99.90
19880;DHT22;10102;50.828;4.416;2023-03-09T04:23:43;6.70;99.90
19880;DHT22;10102;50.828;4.416;2023-03-09T04:26:10;6.70;99.90
19880;DHT22;10102;50.828;4.416;2023-03-09T04:28:36;6.70;99.90
19880;DHT22;10102;50.828;4.416;2023-03-09T04:31:01;6.70;99.90
19880;DHT22;10102;50.828;4.416;2023-03-09T04:33:27;6.80;99.90
19880;DHT22;10102;50.828;4.416;2023-03-09T04:35:53;6.80;99.90
19880;DHT22;10102;50.828;4.416;2023-03-09T04:38:18;6.90;99.90
19880;DHT22;10102;50.828;4.416;2023-03-09T04:40:44;6.80;99.90
19880;DHT22;10102;50.828;4.416;2023-03-09T04:43:10;6.70;99.90
19880;DHT22;10102;50.828;4.416;2023-03-09T04:50:27;6.70;99.90
19880;DHT22;10102;50.828;4.416;2023-03-09T04:52:53;6.70;99.90
19880;DHT22;10102;50.828;4.416;2023-03-09T04:57:47;6.80;99.90
19880;DHT22;10102;50.828;4.416;2023-03-09T05:00:13;6.90;99.90
19880;DHT22;10102;50.828;4.416;2023-03-09T05:02:39;6.90;99.90
19880;DHT22;10102;50.828;4.416;2023-03-09T05:05:07;6.80;99.90
19880;DHT22;10102;50.828;4.416;2023-03-09T05:07:33;6.50;99.90
19880;DHT22;10102;50.828;4.416;2023-03-09T05:09:58;6.80;99.90
19880;DHT22;10102;50.828;4.416;2023-03-09T05:12:24;6.90;99.90
19880;DHT22;10102;50.828;4.416;2023-03-09T05:14:57;6.90;99.90
19880;DHT22;10102;50.828;4.416;2023-03-09T05:17:23;6.90;99.90
19880;DHT22;10102;50.828;4.416;2023-03-09T05:19:49;6.80;99.90
19880;DHT22;10102;50.828;4.416;2023-03-09T05:22:15;6.80;99.90
19880;DHT22;10102;50.828;4.416;2023-03-09T05:29:34;6.80;99.90
19880;DHT22;10102;50.828;4.416;2023-03-09T05:34:25;6.50;99.90
19880;DHT22;10102;50.828;4.416;2023-03-09T05:36:51;6.80;99.90
19880;DHT22;10102;50.828;4.416;2023-03-09T05:44:09;6.80;99.90
19880;DHT22;10102;50.828;4.416;2023-03-09T05:46:34;6.70;99.90
19880;DHT22;10102;50.828;4.416;2023-03-09T05:49:00;6.70;99.90
19880;DHT22;10102;50.828;4.416;2023-03-09T05:51:26;6.70;99.90
19880;DHT22;10102;50.828;4.416;2023-03-09T05:53:52;6.70;99.90
19880;DHT22;10102;50.828;4.416;2023-03-09T05:56:18;6.70;99.90
19880;DHT22;10102;50.828;4.416;2023-03-09T06:01:24;6.50;99.90
19880;DHT22;10102;50.828;4.416;2023-03-09T06:06:22;6.80;99.90
19880;DHT22;10102;50.828;4.416;2023-03-09T06:08:48;6.70;99.90
19880;DHT22;10102;50.828;4.416;2023-03-09T06:11:14;6.70;99.90
19880;DHT22;10102;50.828;4.416;2023-03-09T06:13:39;6.70;99.90
19880;DHT22;10102;50.828;4.416;2023-03-09T06:16:07;6.80;99.90
19880;DHT22;10102;50.828;4.416;2023-03-09T06:18:34;6.70;99.90
19880;DHT22;10102;50.828;4.416;2023-03-09T06:21:05;6.40;99.90
19880;DHT22;10102;50.828;4.416;2023-03-09T06:23:31;6.90;99.90
19880;DHT22;10102;50.828;4.416;2023-03-09T06:25:58;6.80;99.90
19880;DHT22;10102;50.828;4.416;2023-03-09T06:28:24;6.80;99.90
19880;DHT22;10102;50.828;4.416;2023-03-09T06:30:51;6.80;99.90
19880;DHT22;10102;50.828;4.416;2023-03-09T06:33:17;6.90;99.90
19880;DHT22;10102;50.828;4.416;2023-03-09T06:35:43;6.80;99.90
19880;DHT22;10102;50.828;4.416;2023-03-09T06:38:09;6.80;99.90
19880;DHT22;10102;50.828;4.416;2023-03-09T06:40:36;6.90;99.90
19880;DHT22;10102;50.828;4.416;2023-03-09T06:43:05;6.90;99.90
19880;DHT22;10102;50.828;4.416;2023-03-09T06:47:58;7.00;99.90
19880;DHT22;10102;50.828;4.416;2023-03-09T06:50:24;6.80;99.90
19880;DHT22;10102;50.828;4.416;2023-03-09T06:52:50;7.10;99.90
19880;DHT22;10102;50.828;4.416;2023-03-09T06:55:19;7.00;99.90
19880;DHT22;10102;50.828;4.416;2023-03-09T06:57:45;7.10;99.90
19880;DHT22;10102;50.828;4.416;2023-03-09T07:00:12;7.30;99.90
19880;DHT22;10102;50.828;4.416;2023-03-09T07:02:38;7.30;99.90
19880;DHT22;10102;50.828;4.416;2023-03-09T07:05:06;6.90;99.90
19880;DHT22;10102;50.828;4.416;2023-03-09T07:09:58;7.30;99.90
19880;DHT22;10102;50.828;4.416;2023-03-09T07:12:24;7.40;99.90
19880;DHT22;10102;50.828;4.416;2023-03-09T07:14:49;7.50;99.90
19880;DHT22;10102;50.828;4.416;2023-03-09T07:17:15;7.30;99.90
19880;DHT22;10102;50.828;4.416;2023-03-09T07:19:41;7.40;99.90
19880;DHT22;10102;50.828;4.416;2023-03-09T07:22:07;7.40;99.90
19880;DHT22;10102;50.828;4.416;2023-03-09T07:24:36;7.60;99.90
19880;DHT22;10102;50.828;4.416;2023-03-09T07:27:03;7.60;99.90
19880;DHT22;10102;50.828;4.416;2023-03-09T07:29:29;7.60;99.90
19880;DHT22;10102;50.828;4.416;2023-03-09T07:31:55;7.50;99.90
19880;DHT22;10102;50.828;4.416;2023-03-09T07:34:20;7.40;99.90
19880;DHT22;10102;50.828;4.416;2023-03-09T07:36:46;7.60;99.90
19880;DHT22;10102;50.828;4.416;2023-03-09T07:41:41;7.60;99.90
19880;DHT22;10102;50.828;4.416;2023-03-09T07:44:07;7.70;99.90
19880;DHT22;10102;50.828;4.416;2023-03-09T07:46:33;7.80;99.90
19880;DHT22;10102;50.828;4.416;2023-03-09T07:51:25;8.10;99.90
19880;DHT22;10102;50.828;4.416;2023-03-09T07:53:50;8.00;99.90
19880;DHT22;10102;50.828;4.416;2023-03-09T07:56:18;8.00;99.90
19880;DHT22;10102;50.828;4.416;2023-03-09T07:58:45;8.10;99.90
19880;DHT22;10102;50.828;4.416;2023-03-09T08:01:17;8.10;99.90
19880;DHT22;10102;50.828;4.416;2023-03-09T08:03:47;8.10;99.90
19880;DHT22;10102;50.828;4.416;2023-03-09T08:06:13;8.30;99.90
19880;DHT22;10102;50.828;4.416;2023-03-09T08:08:39;8.30;99.90
19880;DHT22;10102;50.828;4.416;2023-03-09T08:11:05;8.30;99.90
19880;DHT22;10102;50.828;4.416;2023-03-09T08:13:33;8.20;99.90
19880;DHT22;10102;50.828;4.416;2023-03-09T08:16:05;8.20;99.90
19880;DHT22;10102;50.828;4.416;2023-03-09T08:21:05;8.20;99.90
19880;DHT22;10102;50.828;4.416;2023-03-09T08:23:33;8.20;99.90
19880;DHT22;10102;50.828;4.416;2023-03-09T08:26:00;8.10;99.90
19880;DHT22;10102;50.828;4.416;2023-03-09T08:30:53;8.20;99.90
19880;DHT22;10102;50.828;4.416;2023-03-09T08:35:46;8.20;99.90
19880;DHT22;10102;50.828;4.416;2023-03-09T08:40:37;8.00;99.90
19880;DHT22;10102;50.828;4.416;2023-03-09T08:43:04;8.20;99.90
19880;DHT22;10102;50.828;4.416;2023-03-09T08:45:30;8.30;99.90
19880;DHT22;10102;50.828;4.416;2023-03-09T08:47:57;8.20;99.90
19880;DHT22;10102;50.828;4.416;2023-03-09T08:50:23;7.70;99.90
19880;DHT22;10102;50.828;4.416;2023-03-09T08:52:49;7.70;99.90
19880;DHT22;10102;50.828;4.416;2023-03-09T08:55:16;7.70;99.90
19880;DHT22;10102;50.828;4.416;2023-03-09T09:00:09;7.80;99.90
19880;DHT22;10102;50.828;4.416;2023-03-09T09:02:36;7.70;99.90
19880;DHT22;10102;50.828;4.416;2023-03-09T09:05:02;8.00;99.90
19880;DHT22;10102;50.828;4.416;2023-03-09T09:07:29;8.00;99.90
19880;DHT22;10102;50.828;4.416;2023-03-09T09:09:56;8.10;99.90
19880;DHT22;10102;50.828;4.416;2023-03-09T09:12:23;8.40;99.90
19880;DHT22;10102;50.828;4.416;2023-03-09T09:14:52;8.60;99.90
19880;DHT22;10102;50.828;4.416;2023-03-09T09:19:43;8.90;99.90
19880;DHT22;10102;50.828;4.416;2023-03-09T09:22:09;9.00;99.90
19880;DHT22;10102;50.828;4.416;2023-03-09T09:24:36;9.20;99.90
19880;DHT22;10102;50.828;4.416;2023-03-09T09:27:03;9.50;99.90
19880;DHT22;10102;50.828;4.416;2023-03-09T09:29:34;9.70;99.90
19880;DHT22;10102;50.828;4.416;2023-03-09T09:32:01;9.60;99.90
19880;DHT22;10102;50.828;4.416;2023-03-09T09:34:31;9.70;99.90
19880;DHT22;10102;50.828;4.416;2023-03-09T09:37:01;9.60;99.90
19880;DHT22;10102;50.828;4.416;2023-03-09T09:39:29;9.70;99.90
19880;DHT22;10102;50.828;4.416;2023-03-09T09:41:58;9.90;99.90
19880;DHT22;10102;50.828;4.416;2023-03-09T09:44:29;10.10;99.90
19880;DHT22;10102;50.828;4.416;2023-03-09T09:46:59;10.30;99.90
19880;DHT22;10102;50.828;4.416;2023-03-09T09:49:28;10.50;99.90
19880;DHT22;10102;50.828;4.416;2023-03-09T09:52:28;10.20;99.90
19880;DHT22;10102;50.828;4.416;2023-03-09T09:57:49;10.10;99.90
19880;DHT22;10102;50.828;4.416;2023-03-09T10:00:28;10.00;99.90
19880;DHT22;10102;50.828;4.416;2023-03-09T10:03:27;10.10;99.90
19880;DHT22;10102;50.828;4.416;2023-03-09T10:06:17;9.70;99.90
19880;DHT22;10102;50.828;4.416;2023-03-09T10:11:28;9.90;99.90
19880;DHT22;10102;50.828;4.416;2023-03-09T10:16:35;10.50;99.90
19880;DHT22;10102;50.828;4.416;2023-03-09T10:19:07;10.20;99.90
19880;DHT22;10102;50.828;4.416;2023-03-09T10:22:00;10.30;99.90
19880;DHT22;10102;50.828;4.416;2023-03-09T10:24:44;10.60;99.90
19880;DHT22;10102;50.828;4.416;2023-03-09T10:38:03;11.30;99.90
19880;DHT22;10102;50.828;4.416;2023-03-09T10:40:40;11.60;99.90
19880;DHT22;10102;50.828;4.416;2023-03-09T10:43:12;11.90;99.90
19880;DHT22;10102;50.828;4.416;2023-03-09T10:45:40;12.00;99.90
19880;DHT22;10102;50.828;4.416;2023-03-09T10:48:06;12.40;99.90
19880;DHT22;10102;50.828;4.416;2023-03-09T10:53:40;12.90;99.90
19880;DHT22;10102;50.828;4.416;2023-03-09T10:56:27;12.80;99.90
19880;DHT22;10102;50.828;4.416;2023-03-09T11:01:36;12.30;99.90
19880;DHT22;10102;50.828;4.416;2023-03-09T11:06:56;12.30;99.90
19880;DHT22;10102;50.828;4.416;2023-03-09T11:12:28;12.00;99.90
19880;DHT22;10102;50.828;4.416;2023-03-09T11:15:03;12.00;99.90
19880;DHT22;10102;50.828;4.416;2023-03-09T11:17:43;12.00;99.90
19880;DHT22;10102;50.828;4.416;2023-03-09T11:20:36;12.00;99.90
19880;DHT22;10102;50.828;4.416;2023-03-09T11:30:59;11.90;99.90
19880;DHT22;10102;50.828;4.416;2023-03-09T11:33:26;11.90;99.90
19880;DHT22;10102;50.828;4.416;2023-03-09T11:35:54;11.80;99.90
19880;DHT22;10102;50.828;4.416;2023-03-09T11:38:22;11.80;99.90
19880;DHT22;10102;50.828;4.416;2023-03-09T11:40:50;11.80;99.90
19880;DHT22;10102;50.828;4.416;2023-03-09T11:43:32;11.80;99.90
19880;DHT22;10102;50.828;4.416;2023-03-09T11:46:01;11.90;99.90
19880;DHT22;10102;50.828;4.416;2023-03-09T11:48:31;12.40;99.90
19880;DHT22;10102;50.828;4.416;2023-03-09T11:51:20;12.70;99.90
19880;DHT22;10102;50.828;4.416;2023-03-09T11:53:54;13.20;99.90
19880;DHT22;10102;50.828;4.416;2023-03-09T11:56:28;13.00;99.90
19880;DHT22;10102;50.828;4.416;2023-03-09T12:04:17;13.20;99.90
19880;DHT22;10102;50.828;4.416;2023-03-09T12:06:53;12.80;99.90
19880;DHT22;10102;50.828;4.416;2023-03-09T12:14:45;12.90;99.90
19880;DHT22;10102;50.828;4.416;2023-03-09T12:17:17;13.00;99.90
19880;DHT22;10102;50.828;4.416;2023-03-09T12:19:47;13.30;99.90
19880;DHT22;10102;50.828;4.416;2023-03-09T12:22:28;13.20;99.90
19880;DHT22;10102;50.828;4.416;2023-03-09T12:25:01;13.30;99.90
19880;DHT22;10102;50.828;4.416;2023-03-09T12:27:28;13.60;99.90
19880;DHT22;10102;50.828;4.416;2023-03-09T12:35:03;13.70;99.90
19880;DHT22;10102;50.828;4.416;2023-03-09T12:42:38;13.80;99.90
19880;DHT22;10102;50.828;4.416;2023-03-09T13:09:01;14.50;99.90
19880;DHT22;10102;50.828;4.416;2023-03-09T13:12:16;14.90;99.90
19880;DHT22;10102;50.828;4.416;2023-03-09T13:16:56;14.90;99.90
19880;DHT22;10102;50.828;4.416;2023-03-09T13:27:17;14.70;99.90
19880;DHT22;10102;50.828;4.416;2023-03-09T13:30:12;14.20;99.90
19880;DHT22;10102;50.828;4.416;2023-03-09T13:33:01;14.50;99.90
19880;DHT22;10102;50.828;4.416;2023-03-09T13:38:02;14.50;99.90
19880;DHT22;10102;50.828;4.416;2023-03-09T13:40:31;14.70;99.90
19880;DHT22;10102;50.828;4.416;2023-03-09T13:42:58;14.70;99.90
19880;DHT22;10102;50.828;4.416;2023-03-09T13:45:31;14.70;99.90
19880;DHT22;10102;50.828;4.416;2023-03-09T13:47:59;14.60;99.90
19880;DHT22;10102;50.828;4.416;2023-03-09T13:50:27;14.70;99.90
19880;DHT22;10102;50.828;4.416;2023-03-09T13:53:01;14.60;99.90
19880;DHT22;10102;50.828;4.416;2023-03-09T13:55:27;14.50;99.90
19880;DHT22;10102;50.828;4.416;2023-03-09T13:57:54;14.20;99.90
19880;DHT22;10102;50.828;4.416;2023-03-09T14:00:25;14.00;99.90
19880;DHT22;10102;50.828;4.416;2023-03-09T14:02:55;13.90;99.90
19880;DHT22;10102;50.828;4.416;2023-03-09T14:05:22;13.70;99.90
19880;DHT22;10102;50.828;4.416;2023-03-09T14:07:54;14.00;99.90
19880;DHT22;10102;50.828;4.416;2023-03-09T14:10:35;13.40;99.90
19880;DHT22;10102;50.828;4.416;2023-03-09T14:13:16;13.30;99.90
19880;DHT22;10102;50.828;4.416;2023-03-09T14:18:26;13.20;99.90
19880;DHT22;10102;50.828;4.416;2023-03-09T14:21:25;13.40;99.90
19880;DHT22;10102;50.828;4.416;2023-03-09T14:23:53;13.10;99.90
19880;DHT22;10102;50.828;4.416;2023-03-09T14:26:30;13.30;99.90
19880;DHT22;10102;50.828;4.416;2023-03-09T14:29:03;13.50;99.90
19880;DHT22;10102;50.828;4.416;2023-03-09T14:31:31;13.70;99.90
19880;DHT22;10102;50.828;4.416;2023-03-09T14:34:02;13.80;99.90
19880;DHT22;10102;50.828;4.416;2023-03-09T14:36:35;13.90;99.90
19880;DHT22;10102;50.828;4.416;2023-03-09T14:39:05;14.10;99.90
19880;DHT22;10102;50.828;4.416;2023-03-09T14:41:36;14.40;99.90
19880;DHT22;10102;50.828;4.416;2023-03-09T14:44:02;14.40;99.90
19880;DHT22;10102;50.828;4.416;2023-03-09T14:48:57;14.60;99.90
19880;DHT22;10102;50.828;4.416;2023-03-09T14:51:28;14.70;99.90
19880;DHT22;10102;50.828;4.416;2023-03-09T14:56:24;14.80;99.90
19880;DHT22;10102;50.828;4.416;2023-03-09T14:58:50;14.90;99.90
19880;DHT22;10102;50.828;4.416;2023-03-09T15:01:17;14.70;99.90
19880;DHT22;10102;50.828;4.416;2023-03-09T15:03:44;14.50;99.90
19880;DHT22;10102;50.828;4.416;2023-03-09T15:06:10;14.40;99.90
19880;DHT22;10102;50.828;4.416;2023-03-09T15:08:36;14.50;99.90
19880;DHT22;10102;50.828;4.416;2023-03-09T15:11:02;14.10;99.90
19880;DHT22;10102;50.828;4.416;2023-03-09T15:13:29;14.00;99.90
19880;DHT22;10102;50.828;4.416;2023-03-09T15:15:54;14.40;99.90
19880;DHT22;10102;50.828;4.416;2023-03-09T15:18:20;14.60;99.90
19880;DHT22;10102;50.828;4.416;2023-03-09T15:20:46;14.60;99.90
19880;DHT22;10102;50.828;4.416;2023-03-09T15:23:11;14.70;99.90
19880;DHT22;10102;50.828;4.416;2023-03-09T15:25:37;15.20;99.90
19880;DHT22;10102;50.828;4.416;2023-03-09T15:28:03;14.90;99.90
19880;DHT22;10102;50.828;4.416;2023-03-09T15:30:29;14.70;99.90
19880;DHT22;10102;50.828;4.416;2023-03-09T15:32:55;14.80;99.90
19880;DHT22;10102;50.828;4.416;2023-03-09T15:35:20;14.90;99.90
19880;DHT22;10102;50.828;4.416;2023-03-09T15:37:47;14.50;99.90
19880;DHT22;10102;50.828;4.416;2023-03-09T15:40:14;14.50;99.90
19880;DHT22;10102;50.828;4.416;2023-03-09T15:42:42;14.40;99.90
19880;DHT22;10102;50.828;4.416;2023-03-09T15:45:09;14.40;99.90
19880;DHT22;10102;50.828;4.416;2023-03-09T15:47:35;14.30;99.90
19880;DHT22;10102;50.828;4.416;2023-03-09T15:50:03;14.60;99.90
19880;DHT22;10102;50.828;4.416;2023-03-09T15:52:30;15.50;99.90
19880;DHT22;10102;50.828;4.416;2023-03-09T15:54:56;14.60;99.90
19880;DHT22;10102;50.828;4.416;2023-03-09T15:57:21;14.40;99.90
19880;DHT22;10102;50.828;4.416;2023-03-09T15:59:49;14.30;99.90
19880;DHT22;10102;50.828;4.416;2023-03-09T16:02:17;14.10;99.90
19880;DHT22;10102;50.828;4.416;2023-03-09T16:04:43;14.10;99.90
19880;DHT22;10102;50.828;4.416;2023-03-09T16:07:08;14.10;99.90
19880;DHT22;10102;50.828;4.416;2023-03-09T16:09:35;14.00;99.90
19880;DHT22;10102;50.828;4.416;2023-03-09T16:12:01;13.90;99.90
19880;DHT22;10102;50.828;4.416;2023-03-09T16:14:26;13.90;99.90
19880;DHT22;10102;50.828;4.416;2023-03-09T16:16:52;13.90;99.90
19880;DHT22;10102;50.828;4.416;2023-03-09T16:19:18;13.90;99.90
19880;DHT22;10102;50.828;4.416;2023-03-09T16:21:44;13.90;99.90
19880;DHT22;10102;50.828;4.416;2023-03-09T16:24:10;13.80;99.90
19880;DHT22;10102;50.828;4.416;2023-03-09T16:26:36;13.70;99.90
19880;DHT22;10102;50.828;4.416;2023-03-09T16:29:01;13.60;99.90
19880;DHT22;10102;50.828;4.416;2023-03-09T16:31:29;13.60;99.90
19880;DHT22;10102;50.828;4.416;2023-03-09T16:33:55;13.80;99.90
19880;DHT22;10102;50.828;4.416;2023-03-09T16:36:22;13.60;99.90
19880;DHT22;10102;50.828;4.416;2023-03-09T16:38:48;13.50;99.90
19880;DHT22;10102;50.828;4.416;2023-03-09T16:41:15;13.60;99.90
19880;DHT22;10102;50.828;4.416;2023-03-09T16:43:41;13.40;99.90
19880;DHT22;10102;50.828;4.416;2023-03-09T16:46:07;13.60;99.90
19880;DHT22;10102;50.828;4.416;2023-03-09T16:48:35;12.90;99.90
19880;DHT22;10102;50.828;4.416;2023-03-09T16:51:02;13.10;99.90
19880;DHT22;10102;50.828;4.416;2023-03-09T16:53:29;13.30;99.90
19880;DHT22;10102;50.828;4.416;2023-03-09T16:55:57;13.30;99.90
19880;DHT22;10102;50.828;4.416;2023-03-09T16:58:24;13.30;99.90
19880;DHT22;10102;50.828;4.416;2023-03-09T17:03:17;13.20;99.90
19880;DHT22;10102;50.828;4.416;2023-03-09T17:05:43;13.30;99.90
19880;DHT22;10102;50.828;4.416;2023-03-09T17:08:10;13.40;99.90
19880;DHT22;10102;50.828;4.416;2023-03-09T17:11:14;13.10;99.90
19880;DHT22;10102;50.828;4.416;2023-03-09T17:13:44;13.10;99.90
19880;DHT22;10102;50.828;4.416;2023-03-09T17:16:15;13.00;99.90
19880;DHT22;10102;50.828;4.416;2023-03-09T17:18:41;12.90;99.90
19880;DHT22;10102;50.828;4.416;2023-03-09T17:21:08;12.90;99.90
19880;DHT22;10102;50.828;4.416;2023-03-09T17:23:35;12.60;99.90
19880;DHT22;10102;50.828;4.416;2023-03-09T17:26:02;12.60;99.90
19880;DHT22;10102;50.828;4.416;2023-03-09T17:28:29;12.60;99.90
19880;DHT22;10102;50.828;4.416;2023-03-09T17:30:54;12.80;99.90
19880;DHT22;10102;50.828;4.416;2023-03-09T17:35:47;12.50;99.90
19880;DHT22;10102;50.828;4.416;2023-03-09T17:38:13;12.40;99.90
19880;DHT22;10102;50.828;4.416;2023-03-09T17:40:47;12.40;99.90
19880;DHT22;10102;50.828;4.416;2023-03-09T17:43:13;12.30;99.90
19880;DHT22;10102;50.828;4.416;2023-03-09T17:45:40;12.20;99.90
19880;DHT22;10102;50.828;4.416;2023-03-09T17:48:06;12.20;99.90
19880;DHT22;10102;50.828;4.416;2023-03-09T17:50:32;12.10;99.90
19880;DHT22;10102;50.828;4.416;2023-03-09T17:55:24;12.20;99.90
19880;DHT22;10102;50.828;4.416;2023-03-09T17:57:50;12.40;99.90
19880;DHT22;10102;50.828;4.416;2023-03-09T18:00:17;12.10;99.90
19880;DHT22;10102;50.828;4.416;2023-03-09T18:02:43;12.10;99.90
19880;DHT22;10102;50.828;4.416;2023-03-09T18:05:09;12.10;99.90
19880;DHT22;10102;50.828;4.416;2023-03-09T18:07:35;12.20;99.90
19880;DHT22;10102;50.828;4.416;2023-03-09T18:10:01;12.10;99.90
19880;DHT22;10102;50.828;4.416;2023-03-09T18:14:53;12.10;99.90
19880;DHT22;10102;50.828;4.416;2023-03-09T18:17:19;12.10;99.90
19880;DHT22;10102;50.828;4.416;2023-03-09T18:19:47;12.20;99.90
19880;DHT22;10102;50.828;4.416;2023-03-09T18:22:13;11.90;99.90
19880;DHT22;10102;50.828;4.416;2023-03-09T18:24:39;12.00;99.90
19880;DHT22;10102;50.828;4.416;2023-03-09T18:27:05;11.90;99.90
19880;DHT22;10102;50.828;4.416;2023-03-09T18:29:31;12.30;99.90
19880;DHT22;10102;50.828;4.416;2023-03-09T18:31:58;12.10;99.90
19880;DHT22;10102;50.828;4.416;2023-03-09T18:34:24;12.40;99.90
19880;DHT22;10102;50.828;4.416;2023-03-09T18:36:50;12.00;99.90
19880;DHT22;10102;50.828;4.416;2023-03-09T18:39:15;12.00;99.90
19880;DHT22;10102;50.828;4.416;2023-03-09T18:41:42;12.00;99.90
19880;DHT22;10102;50.828;4.416;2023-03-09T18:46:34;12.10;99.90
19880;DHT22;10102;50.828;4.416;2023-03-09T18:49:00;12.10;99.90
19880;DHT22;10102;50.828;4.416;2023-03-09T18:51:27;12.10;99.90
19880;DHT22;10102;50.828;4.416;2023-03-09T18:53:53;12.20;99.90
19880;DHT22;10102;50.828;4.416;2023-03-09T18:56:19;12.10;99.90
19880;DHT22;10102;50.828;4.416;2023-03-09T18:58:46;12.10;99.90
19880;DHT22;10102;50.828;4.416;2023-03-09T19:01:14;12.10;99.90
19880;DHT22;10102;50.828;4.416;2023-03-09T19:03:40;12.10;99.90
19880;DHT22;10102;50.828;4.416;2023-03-09T19:06:14;12.10;99.90
19880;DHT22;10102;50.828;4.416;2023-03-09T19:08:40;12.30;99.90
19880;DHT22;10102;50.828;4.416;2023-03-09T19:11:12;12.50;99.90
19880;DHT22;10102;50.828;4.416;2023-03-09T19:13:38;12.30;99.90
19880;DHT22;10102;50.828;4.416;2023-03-09T19:16:05;12.30;99.90
19880;DHT22;10102;50.828;4.416;2023-03-09T19:18:32;12.30;99.90